createdAt,value
2018-03-06T00:00:07.533Z,86.64
2018-03-06T00:00:56.355Z,87.33
2018-03-06T00:01:45.659Z,87.48
2018-03-06T00:02:34.718Z,87.75
2018-03-06T00:03:23.953Z,87.89
2018-03-06T00:04:13.009Z,87.93
2018-03-06T00:05:02.277Z,87.86
2018-03-06T00:05:51.346Z,87.64
2018-03-06T00:06:40.418Z,87.46
2018-03-06T00:07:29.586Z,87.38
2018-03-06T00:08:18.644Z,87.76
2018-03-06T00:09:07.777Z,87.85
2018-03-06T00:09:56.846Z,87.92
2018-03-06T00:10:45.910Z,87.94
2018-03-06T00:11:34.987Z,87.96
2018-03-06T00:12:24.051Z,87.70
2018-03-06T00:13:14.063Z,87.57
2018-03-06T00:14:03.269Z,87.66
2018-03-06T00:14:52.428Z,87.83
2018-03-06T00:15:41.518Z,87.94
2018-03-06T00:16:30.590Z,88.04
2018-03-06T00:17:19.644Z,88.17
2018-03-06T00:18:08.731Z,88.01
2018-03-06T00:18:57.789Z,88.12
2018-03-06T00:19:46.962Z,88.12
2018-03-06T00:20:36.206Z,88.02
2018-03-06T00:21:25.260Z,87.97
2018-03-06T00:22:14.321Z,87.96
2018-03-06T00:23:03.414Z,87.89
2018-03-06T00:23:52.481Z,87.83
2018-03-06T00:24:41.533Z,87.75
2018-03-06T00:25:30.636Z,87.70
2018-03-06T00:26:19.700Z,87.55
2018-03-06T00:27:08.769Z,87.53
2018-03-06T00:27:57.822Z,87.07
2018-03-06T00:28:47.040Z,87.00
2018-03-06T00:29:36.091Z,87.08
2018-03-06T00:30:25.145Z,87.06
2018-03-06T00:31:14.341Z,87.19
2018-03-06T00:32:03.399Z,87.36
2018-03-06T00:32:52.498Z,87.39
2018-03-06T00:33:41.554Z,87.39
2018-03-06T00:34:30.657Z,87.49
2018-03-06T00:35:19.720Z,87.45
2018-03-06T00:36:08.797Z,87.11
2018-03-06T00:36:57.849Z,86.75
2018-03-06T00:37:46.901Z,86.63
2018-03-06T00:38:36.025Z,86.73
2018-03-06T00:39:25.069Z,87.02
2018-03-06T00:40:14.262Z,87.62
2018-03-06T00:41:03.338Z,87.90
2018-03-06T00:41:52.494Z,88.07
2018-03-06T00:42:41.575Z,88.13
2018-03-06T00:43:30.652Z,88.03
2018-03-06T00:44:19.813Z,87.84
2018-03-06T00:45:08.920Z,87.86
2018-03-06T00:45:57.973Z,87.63
2018-03-06T00:46:47.022Z,86.98
2018-03-06T00:47:36.084Z,86.74
2018-03-06T00:48:25.129Z,86.56
2018-03-06T00:49:14.258Z,86.45
2018-03-06T00:50:03.360Z,86.75
2018-03-06T00:50:52.434Z,86.84
2018-03-06T00:51:41.498Z,87.36
2018-03-06T00:52:30.552Z,87.74
2018-03-06T00:53:19.606Z,87.78
2018-03-06T00:54:08.656Z,87.78
2018-03-06T00:54:57.856Z,87.85
2018-03-06T00:55:47.041Z,87.99
2018-03-06T00:56:36.146Z,88.09
2018-03-06T00:57:25.204Z,88.16
2018-03-06T00:58:14.269Z,88.19
2018-03-06T00:59:03.319Z,88.21
2018-03-06T00:59:53.315Z,88.27
2018-03-06T01:00:42.374Z,88.22
2018-03-06T01:01:31.548Z,88.00
2018-03-06T01:02:20.608Z,87.09
2018-03-06T01:03:09.685Z,86.70
2018-03-06T01:03:58.740Z,86.74
2018-03-06T01:04:47.962Z,86.80
2018-03-06T01:05:37.025Z,86.91
2018-03-06T01:06:26.090Z,87.02
2018-03-06T01:07:15.206Z,87.05
2018-03-06T01:08:04.257Z,86.94
2018-03-06T01:08:53.313Z,86.92
2018-03-06T01:09:42.570Z,86.98
2018-03-06T01:10:31.624Z,87.22
2018-03-06T01:11:23.803Z,87.83
2018-03-06T01:12:12.874Z,88.60
2018-03-06T01:13:01.935Z,88.90
2018-03-06T01:13:50.984Z,88.97
2018-03-06T01:14:40.187Z,88.89
2018-03-06T01:15:29.235Z,88.66
2018-03-06T01:16:18.299Z,88.68
2018-03-06T01:17:07.476Z,88.83
2018-03-06T01:17:56.529Z,88.85
2018-03-06T01:18:45.698Z,88.88
2018-03-06T01:19:34.758Z,88.94
2018-03-06T01:20:23.846Z,88.99
2018-03-06T01:21:12.869Z,89.02
2018-03-06T01:22:02.006Z,89.05
2018-03-06T01:22:51.139Z,89.00
2018-03-06T01:23:40.310Z,88.88
2018-03-06T01:24:29.364Z,88.73
2018-03-06T01:25:18.616Z,88.69
2018-03-06T01:26:07.674Z,88.57
2018-03-06T01:26:56.751Z,88.27
2018-03-06T01:27:45.801Z,88.30
2018-03-06T01:28:34.889Z,88.27
2018-03-06T01:29:24.206Z,88.22
2018-03-06T01:30:13.259Z,87.81
2018-03-06T01:31:02.305Z,87.69
2018-03-06T01:31:51.374Z,87.71
2018-03-06T01:32:40.457Z,87.75
2018-03-06T01:33:29.493Z,87.86
2018-03-06T01:34:18.650Z,87.88
2018-03-06T01:35:07.702Z,87.78
2018-03-06T01:35:56.752Z,87.63
2018-03-06T01:36:45.827Z,87.60
2018-03-06T01:37:34.915Z,88.43
2018-03-06T01:38:24.000Z,88.91
2018-03-06T01:39:13.100Z,89.43
2018-03-06T01:40:02.202Z,89.62
2018-03-06T01:40:51.259Z,89.58
2018-03-06T01:41:40.432Z,89.43
2018-03-06T01:42:29.482Z,89.40
2018-03-06T01:43:21.137Z,89.40
2018-03-06T01:44:10.214Z,89.28
2018-03-06T01:44:59.414Z,89.05
2018-03-06T01:45:48.494Z,88.86
2018-03-06T01:46:37.694Z,88.61
2018-03-06T01:47:26.739Z,88.45
2018-03-06T01:48:15.788Z,88.46
2018-03-06T01:49:04.831Z,88.51
2018-03-06T01:49:53.936Z,88.54
2018-03-06T01:50:42.987Z,88.54
2018-03-06T01:51:43.849Z,88.61
2018-03-06T01:52:32.899Z,88.60
2018-03-06T01:53:22.582Z,88.41
2018-03-06T01:54:11.644Z,88.39
2018-03-06T01:55:00.692Z,88.79
2018-03-06T01:55:49.736Z,88.82
2018-03-06T01:56:38.782Z,88.99
2018-03-06T01:57:27.873Z,89.27
2018-03-06T01:58:16.989Z,89.40
2018-03-06T01:59:06.042Z,89.49
2018-03-06T01:59:55.122Z,89.31
2018-03-06T02:00:44.170Z,89.41
2018-03-06T02:01:33.260Z,89.20
2018-03-06T02:02:22.320Z,89.18
2018-03-06T02:03:11.405Z,89.21
2018-03-06T02:04:00.458Z,89.23
2018-03-06T02:04:49.498Z,89.40
2018-03-06T02:05:38.714Z,89.27
2018-03-06T02:06:27.777Z,89.19
2018-03-06T02:07:16.968Z,89.36
2018-03-06T02:08:09.533Z,89.62
2018-03-06T02:08:58.916Z,89.66
2018-03-06T02:09:48.209Z,89.58
2018-03-06T02:10:37.291Z,89.41
2018-03-06T02:11:26.480Z,89.42
2018-03-06T02:12:15.637Z,89.42
2018-03-06T02:13:07.114Z,89.06
2018-03-06T02:13:56.169Z,89.14
2018-03-06T02:14:45.287Z,89.15
2018-03-06T02:15:34.296Z,89.20
2018-03-06T02:16:23.381Z,88.91
2018-03-06T02:17:12.438Z,88.90
2018-03-06T02:18:01.606Z,88.70
2018-03-06T02:18:50.648Z,88.45
2018-03-06T02:19:39.690Z,88.48
2018-03-06T02:20:28.750Z,88.63
2018-03-06T02:21:17.810Z,88.58
2018-03-06T02:22:06.906Z,88.56
2018-03-06T02:22:55.974Z,88.54
2018-03-06T02:23:45.062Z,88.34
2018-03-06T02:24:34.120Z,88.01
2018-03-06T02:25:23.177Z,87.58
2018-03-06T02:26:12.425Z,87.36
2018-03-06T02:27:01.466Z,87.42
2018-03-06T02:27:50.503Z,87.58
2018-03-06T02:28:39.558Z,87.55
2018-03-06T02:29:28.878Z,87.76
2018-03-06T02:30:17.939Z,87.65
2018-03-06T02:31:07.154Z,87.69
2018-03-06T02:31:56.200Z,87.62
2018-03-06T02:32:45.252Z,87.47
2018-03-06T02:33:34.301Z,87.34
2018-03-06T02:34:23.371Z,87.33
2018-03-06T02:35:12.525Z,87.22
2018-03-06T02:36:01.692Z,87.38
2018-03-06T02:36:50.757Z,87.37
2018-03-06T02:37:40.015Z,87.19
2018-03-06T02:38:29.158Z,87.19
2018-03-06T02:39:18.202Z,87.28
2018-03-06T02:40:07.362Z,87.40
2018-03-06T02:40:56.413Z,87.53
2018-03-06T02:41:45.464Z,87.63
2018-03-06T02:42:34.623Z,87.47
2018-03-06T02:43:24.307Z,87.48
2018-03-06T02:44:13.362Z,87.55
2018-03-06T02:45:02.399Z,87.63
2018-03-06T02:45:51.666Z,87.54
2018-03-06T02:46:40.722Z,87.41
2018-03-06T02:47:29.841Z,87.27
2018-03-06T02:48:18.886Z,87.18
2018-03-06T02:49:07.936Z,87.26
2018-03-06T02:49:56.995Z,87.45
2018-03-06T02:50:46.140Z,87.55
2018-03-06T02:51:35.223Z,87.87
2018-03-06T02:52:24.414Z,88.00
2018-03-06T02:53:13.466Z,88.11
2018-03-06T02:54:02.520Z,88.16
2018-03-06T02:54:51.601Z,88.04
2018-03-06T02:55:40.748Z,87.92
2018-03-06T02:56:29.804Z,87.73
2018-03-06T02:57:19.094Z,87.25
2018-03-06T02:58:08.145Z,87.78
2018-03-06T02:58:57.476Z,88.24
2018-03-06T02:59:46.516Z,88.60
2018-03-06T03:00:35.570Z,88.69
2018-03-06T03:01:24.623Z,89.01
2018-03-06T03:02:13.785Z,89.17
2018-03-06T03:03:02.934Z,89.13
2018-03-06T03:03:51.975Z,88.94
2018-03-06T03:04:41.088Z,88.89
2018-03-06T03:05:30.146Z,88.61
2018-03-06T03:06:19.194Z,87.99
2018-03-06T03:07:08.275Z,87.86
2018-03-06T03:07:57.318Z,87.91
2018-03-06T03:08:46.705Z,87.88
2018-03-06T03:09:35.772Z,87.88
2018-03-06T03:10:24.877Z,87.82
2018-03-06T03:11:13.958Z,88.20
2018-03-06T03:12:03.183Z,88.61
2018-03-06T03:12:52.278Z,88.94
2018-03-06T03:13:41.329Z,89.04
2018-03-06T03:14:30.582Z,89.07
2018-03-06T03:15:19.633Z,89.03
2018-03-06T03:16:08.678Z,88.92
2018-03-06T03:16:57.801Z,88.85
2018-03-06T03:17:46.942Z,88.69
2018-03-06T03:18:36.030Z,88.44
2018-03-06T03:19:25.084Z,88.24
2018-03-06T03:20:14.147Z,88.18
2018-03-06T03:21:03.200Z,88.17
2018-03-06T03:21:52.236Z,88.18
2018-03-06T03:22:43.267Z,88.17
2018-03-06T03:23:32.314Z,88.30
2018-03-06T03:24:21.354Z,88.75
2018-03-06T03:25:10.402Z,89.23
2018-03-06T03:25:59.451Z,89.79
2018-03-06T03:26:48.546Z,90.03
2018-03-06T03:27:37.608Z,89.91
2018-03-06T03:28:27.170Z,89.42
2018-03-06T03:29:16.215Z,89.33
2018-03-06T03:30:05.468Z,89.37
2018-03-06T03:30:54.513Z,89.36
2018-03-06T03:31:43.814Z,89.30
2018-03-06T03:32:32.855Z,89.13
2018-03-06T03:33:21.949Z,88.82
2018-03-06T03:34:10.991Z,88.67
2018-03-06T03:35:00.039Z,88.45
2018-03-06T03:35:49.129Z,88.55
2018-03-06T03:36:38.232Z,88.67
2018-03-06T03:37:27.281Z,88.70
2018-03-06T03:38:16.381Z,88.77
2018-03-06T03:39:05.645Z,88.75
2018-03-06T03:39:54.704Z,88.67
2018-03-06T03:40:43.740Z,88.70
2018-03-06T03:41:32.797Z,88.69
2018-03-06T03:42:21.887Z,88.60
2018-03-06T03:43:10.964Z,88.54
2018-03-06T03:44:00.008Z,88.45
2018-03-06T03:44:49.092Z,88.48
2018-03-06T03:45:38.142Z,88.42
2018-03-06T03:46:27.182Z,88.25
2018-03-06T03:47:16.239Z,88.26
2018-03-06T03:48:05.288Z,88.17
2018-03-06T03:48:54.328Z,88.19
2018-03-06T03:49:43.497Z,87.76
2018-03-06T03:50:32.579Z,87.70
2018-03-06T03:51:21.630Z,87.65
2018-03-06T03:52:10.738Z,87.45
2018-03-06T03:53:02.864Z,87.28
2018-03-06T03:53:52.108Z,87.40
2018-03-06T03:54:41.171Z,87.41
2018-03-06T03:55:30.221Z,87.34
2018-03-06T03:56:19.737Z,87.31
2018-03-06T03:57:08.784Z,87.31
2018-03-06T03:57:57.845Z,87.37
2018-03-06T03:58:46.897Z,87.41
2018-03-06T03:59:35.927Z,87.43
2018-03-06T04:00:24.981Z,87.37
2018-03-06T04:01:14.072Z,87.29
2018-03-06T04:02:03.162Z,87.46
2018-03-06T04:02:52.207Z,87.46
2018-03-06T04:03:41.332Z,87.41
2018-03-06T04:04:30.494Z,87.55
2018-03-06T04:05:19.536Z,87.49
2018-03-06T04:06:08.591Z,87.29
2018-03-06T04:06:57.651Z,86.93
2018-03-06T04:07:46.822Z,86.95
2018-03-06T04:08:35.871Z,86.95
2018-03-06T04:09:28.106Z,87.04
2018-03-06T04:10:17.154Z,87.42
2018-03-06T04:11:06.211Z,87.60
2018-03-06T04:11:55.293Z,87.71
2018-03-06T04:12:44.342Z,87.88
2018-03-06T04:13:33.554Z,88.01
2018-03-06T04:14:22.597Z,88.09
2018-03-06T04:15:11.972Z,88.10
2018-03-06T04:16:01.030Z,88.19
2018-03-06T04:16:50.111Z,88.04
2018-03-06T04:17:39.155Z,87.84
2018-03-06T04:18:28.238Z,87.42
2018-03-06T04:19:17.287Z,87.50
2018-03-06T04:20:06.533Z,87.91
2018-03-06T04:20:55.661Z,88.00
2018-03-06T04:21:45.284Z,87.91
2018-03-06T04:22:34.327Z,88.20
2018-03-06T04:23:23.380Z,88.15
2018-03-06T04:24:12.445Z,88.21
2018-03-06T04:25:01.495Z,88.37
2018-03-06T04:25:50.592Z,88.72
2018-03-06T04:26:39.675Z,89.00
2018-03-06T04:27:28.722Z,89.20
2018-03-06T04:28:17.775Z,89.25
2018-03-06T04:29:06.820Z,89.15
2018-03-06T04:29:56.050Z,89.07
2018-03-06T04:30:45.103Z,89.17
2018-03-06T04:31:34.154Z,89.24
2018-03-06T04:32:23.323Z,89.21
2018-03-06T04:33:12.354Z,89.22
2018-03-06T04:34:01.509Z,88.99
2018-03-06T04:34:50.566Z,88.98
2018-03-06T04:35:39.620Z,89.02
2018-03-06T04:36:28.667Z,89.08
2018-03-06T04:37:17.714Z,89.01
2018-03-06T04:38:06.878Z,88.99
2018-03-06T04:38:55.923Z,88.93
2018-03-06T04:39:45.219Z,88.81
2018-03-06T04:40:34.442Z,88.48
2018-03-06T04:41:23.496Z,88.29
2018-03-06T04:42:12.556Z,87.96
2018-03-06T04:43:01.611Z,87.65
2018-03-06T04:43:50.759Z,87.20
2018-03-06T04:44:39.807Z,86.84
2018-03-06T04:45:28.846Z,86.81
2018-03-06T04:46:17.917Z,86.98
2018-03-06T04:47:07.032Z,87.26
2018-03-06T04:47:56.073Z,87.45
2018-03-06T04:48:45.334Z,87.18
2018-03-06T04:49:37.510Z,87.18
2018-03-06T04:50:26.577Z,87.06
2018-03-06T04:51:15.626Z,87.27
2018-03-06T04:52:04.709Z,87.72
2018-03-06T04:52:53.766Z,88.02
2018-03-06T04:53:42.822Z,88.49
2018-03-06T04:54:31.885Z,88.72
2018-03-06T04:55:20.978Z,88.05
2018-03-06T04:56:10.043Z,87.69
2018-03-06T04:56:59.125Z,88.07
2018-03-06T04:57:48.176Z,88.46
2018-03-06T04:58:37.334Z,88.60
2018-03-06T04:59:26.395Z,88.58
2018-03-06T05:00:15.445Z,88.53
2018-03-06T05:01:04.606Z,88.55
2018-03-06T05:01:53.661Z,88.59
2018-03-06T05:02:42.729Z,88.40
2018-03-06T05:03:31.779Z,88.26
2018-03-06T05:04:20.839Z,88.22
2018-03-06T05:05:09.909Z,88.19
2018-03-06T05:05:58.965Z,88.27
2018-03-06T05:06:48.133Z,88.27
2018-03-06T05:07:37.826Z,88.26
2018-03-06T05:08:26.877Z,88.29
2018-03-06T05:09:15.929Z,88.29
2018-03-06T05:10:04.976Z,88.36
2018-03-06T05:10:54.027Z,88.65
2018-03-06T05:11:43.114Z,88.56
2018-03-06T05:12:32.167Z,88.10
2018-03-06T05:13:21.213Z,87.65
2018-03-06T05:14:10.294Z,87.73
2018-03-06T05:14:59.342Z,87.62
2018-03-06T05:15:48.397Z,87.45
2018-03-06T05:16:37.550Z,87.24
2018-03-06T05:17:26.653Z,87.46
2018-03-06T05:18:15.698Z,87.57
2018-03-06T05:19:04.751Z,87.92
2018-03-06T05:19:53.802Z,88.08
2018-03-06T05:20:42.847Z,88.00
2018-03-06T05:21:32.006Z,87.99
2018-03-06T05:22:21.086Z,88.02
2018-03-06T05:23:10.145Z,88.00
2018-03-06T05:23:59.210Z,87.90
2018-03-06T05:24:48.268Z,87.74
2018-03-06T05:25:37.326Z,87.60
2018-03-06T05:26:26.382Z,87.51
2018-03-06T05:27:15.471Z,87.42
2018-03-06T05:28:04.526Z,87.03
2018-03-06T05:28:53.570Z,86.92
2018-03-06T05:29:42.632Z,87.07
2018-03-06T05:30:31.846Z,87.21
2018-03-06T05:31:20.890Z,87.29
2018-03-06T05:32:09.942Z,87.42
2018-03-06T05:32:59.019Z,87.78
2018-03-06T05:33:48.065Z,87.91
2018-03-06T05:34:37.272Z,87.95
2018-03-06T05:35:26.450Z,87.98
2018-03-06T05:36:15.569Z,88.11
2018-03-06T05:37:04.632Z,88.04
2018-03-06T05:37:53.675Z,88.09
2018-03-06T05:38:42.878Z,87.96
2018-03-06T05:39:31.941Z,87.83
2018-03-06T05:40:21.023Z,87.88
2018-03-06T05:41:10.152Z,87.95
2018-03-06T05:41:59.218Z,87.99
2018-03-06T05:42:48.360Z,87.93
2018-03-06T05:43:37.434Z,87.81
2018-03-06T05:44:26.486Z,87.83
2018-03-06T05:45:15.563Z,87.68
2018-03-06T05:46:04.782Z,87.60
2018-03-06T05:46:53.842Z,87.37
2018-03-06T05:47:42.895Z,87.17
2018-03-06T05:48:32.006Z,87.12
2018-03-06T05:49:21.067Z,87.00
2018-03-06T05:50:10.186Z,86.91
2018-03-06T05:50:59.222Z,87.28
2018-03-06T05:51:48.278Z,87.06
2018-03-06T05:52:37.390Z,87.10
2018-03-06T05:53:26.487Z,86.82
2018-03-06T05:54:15.765Z,86.91
2018-03-06T05:55:04.831Z,87.03
2018-03-06T05:55:53.894Z,86.32
2018-03-06T05:56:42.965Z,85.61
2018-03-06T05:57:32.034Z,85.93
2018-03-06T05:58:21.167Z,85.77
2018-03-06T05:59:11.482Z,85.61
2018-03-06T06:00:00.687Z,85.66
2018-03-06T06:00:50.538Z,85.89
2018-03-06T06:01:39.606Z,86.02
2018-03-06T06:02:28.767Z,86.36
2018-03-06T06:03:17.865Z,86.50
2018-03-06T06:04:07.029Z,86.75
2018-03-06T06:04:56.094Z,86.55
2018-03-06T06:05:45.160Z,86.41
2018-03-06T06:06:34.217Z,86.45
2018-03-06T06:07:23.537Z,86.39
2018-03-06T06:08:12.598Z,86.28
2018-03-06T06:09:01.677Z,86.15
2018-03-06T06:09:50.821Z,86.37
2018-03-06T06:10:39.889Z,86.63
2018-03-06T06:11:29.126Z,87.44
2018-03-06T06:12:18.228Z,88.16
2018-03-06T06:13:07.335Z,88.41
2018-03-06T06:13:56.398Z,88.23
2018-03-06T06:14:45.442Z,88.26
2018-03-06T06:15:34.510Z,88.16
2018-03-06T06:16:23.552Z,87.40
2018-03-06T06:17:12.602Z,86.55
2018-03-06T06:18:01.648Z,86.12
2018-03-06T06:18:50.685Z,86.08
2018-03-06T06:19:39.723Z,85.89
2018-03-06T06:20:28.764Z,85.67
2018-03-06T06:21:17.945Z,85.77
2018-03-06T06:22:06.981Z,85.93
2018-03-06T06:22:56.021Z,85.99
2018-03-06T06:23:45.117Z,85.92
2018-03-06T06:24:34.180Z,85.79
2018-03-06T06:25:23.218Z,85.57
2018-03-06T06:26:12.263Z,85.69
2018-03-06T06:27:01.309Z,85.68
2018-03-06T06:27:50.590Z,85.46
2018-03-06T06:28:39.734Z,84.20
2018-03-06T06:29:28.776Z,83.89
2018-03-06T06:30:17.817Z,83.62
2018-03-06T06:31:06.865Z,82.98
2018-03-06T06:31:55.900Z,82.86
2018-03-06T06:32:44.945Z,82.52
2018-03-06T06:33:33.989Z,82.24
2018-03-06T06:34:23.086Z,81.17
2018-03-06T06:35:12.132Z,80.84
2018-03-06T06:36:01.179Z,80.65
2018-03-06T06:36:50.231Z,80.99
2018-03-06T06:37:39.281Z,81.46
2018-03-06T06:38:28.482Z,80.89
2018-03-06T06:39:17.544Z,80.11
2018-03-06T06:40:06.636Z,80.20
2018-03-06T06:40:55.685Z,79.76
2018-03-06T06:41:44.973Z,79.51
2018-03-06T06:42:34.013Z,79.17
2018-03-06T06:43:23.060Z,79.28
2018-03-06T06:44:12.162Z,79.52
2018-03-06T06:45:01.262Z,79.56
2018-03-06T06:45:50.362Z,79.87
2018-03-06T06:46:39.418Z,80.55
2018-03-06T06:47:28.452Z,80.43
2018-03-06T06:48:17.592Z,80.42
2018-03-06T06:49:06.625Z,79.93
2018-03-06T06:49:55.667Z,79.37
2018-03-06T06:50:44.707Z,79.45
2018-03-06T06:51:33.765Z,79.43
2018-03-06T06:52:22.808Z,78.77
2018-03-06T06:53:11.850Z,78.41
2018-03-06T06:54:00.918Z,78.48
2018-03-06T06:54:50.170Z,78.14
2018-03-06T06:55:39.222Z,78.04
2018-03-06T06:56:28.252Z,77.76
2018-03-06T06:57:17.291Z,78.31
2018-03-06T06:58:06.318Z,79.43
2018-03-06T06:58:55.354Z,80.37
2018-03-06T06:59:44.691Z,80.86
2018-03-06T07:00:33.776Z,81.58
2018-03-06T07:01:22.828Z,82.33
2018-03-06T07:02:11.918Z,82.19
2018-03-06T07:03:00.989Z,81.62
2018-03-06T07:03:50.225Z,81.52
2018-03-06T07:04:39.286Z,81.39
2018-03-06T07:05:28.325Z,81.65
2018-03-06T07:06:17.362Z,81.30
2018-03-06T07:07:06.400Z,81.07
2018-03-06T07:07:55.443Z,81.47
2018-03-06T07:08:44.538Z,81.84
2018-03-06T07:09:33.611Z,81.57
2018-03-06T07:10:22.716Z,81.54
2018-03-06T07:11:11.903Z,82.10
2018-03-06T07:12:00.953Z,81.92
2018-03-06T07:12:49.990Z,82.07
2018-03-06T07:13:39.026Z,81.72
2018-03-06T07:14:28.064Z,82.07
2018-03-06T07:15:17.094Z,81.95
2018-03-06T07:16:06.134Z,82.01
2018-03-06T07:16:55.649Z,82.05
2018-03-06T07:17:44.682Z,81.79
2018-03-06T07:18:33.765Z,81.54
2018-03-06T07:19:22.796Z,81.60
2018-03-06T07:20:11.826Z,81.77
2018-03-06T07:21:00.853Z,81.49
2018-03-06T07:21:49.894Z,81.53
2018-03-06T07:22:38.922Z,81.22
2018-03-06T07:23:28.016Z,81.21
2018-03-06T07:24:17.102Z,81.40
2018-03-06T07:25:06.155Z,81.25
2018-03-06T07:25:55.201Z,81.19
2018-03-06T07:26:44.238Z,81.38
2018-03-06T07:27:33.275Z,81.13
2018-03-06T07:28:22.406Z,81.27
2018-03-06T07:29:11.450Z,81.05
2018-03-06T07:30:00.480Z,81.04
2018-03-06T07:30:49.598Z,81.08
2018-03-06T07:31:38.625Z,80.92
2018-03-06T07:32:27.655Z,81.33
2018-03-06T07:33:16.683Z,81.47
2018-03-06T07:34:05.809Z,81.21
2018-03-06T07:34:54.843Z,80.19
2018-03-06T07:35:43.955Z,80.01
2018-03-06T07:36:32.978Z,79.79
2018-03-06T07:37:22.012Z,79.82
2018-03-06T07:38:11.256Z,80.98
2018-03-06T07:39:00.282Z,81.04
2018-03-06T07:39:49.346Z,81.69
2018-03-06T07:40:38.378Z,81.71
2018-03-06T07:41:27.412Z,81.30
2018-03-06T07:42:16.437Z,80.92
2018-03-06T07:43:05.468Z,81.59
2018-03-06T07:43:54.548Z,81.71
2018-03-06T07:44:43.607Z,81.91
2018-03-06T07:45:32.735Z,82.20
2018-03-06T07:46:21.760Z,81.35
2018-03-06T07:47:10.785Z,81.42
2018-03-06T07:47:59.812Z,81.55
2018-03-06T07:48:48.971Z,81.33
2018-03-06T07:49:37.995Z,80.88
2018-03-06T07:50:27.021Z,81.00
2018-03-06T07:51:16.151Z,81.08
2018-03-06T07:52:05.177Z,81.22
2018-03-06T07:52:54.213Z,80.82
2018-03-06T07:53:43.247Z,80.63
2018-03-06T07:54:32.278Z,79.99
2018-03-06T07:55:21.311Z,80.30
2018-03-06T07:56:10.395Z,79.75
2018-03-06T07:56:59.434Z,78.75
2018-03-06T07:57:48.459Z,80.10
2018-03-06T07:58:37.480Z,80.60
2018-03-06T07:59:26.533Z,80.38
2018-03-06T08:00:15.559Z,80.58
2018-03-06T08:01:04.618Z,80.31
2018-03-06T08:01:53.638Z,79.41
2018-03-06T08:02:42.718Z,79.25
2018-03-06T08:03:31.747Z,78.20
2018-03-06T08:04:20.763Z,78.40
2018-03-06T08:05:09.862Z,77.77
2018-03-06T08:05:58.898Z,77.75
2018-03-06T08:06:47.926Z,77.68
2018-03-06T08:07:36.953Z,77.39
2018-03-06T08:08:26.253Z,76.97
2018-03-06T08:09:15.284Z,76.82
2018-03-06T08:10:04.351Z,76.81
2018-03-06T08:10:53.590Z,77.04
2018-03-06T08:11:42.680Z,76.48
2018-03-06T08:12:31.727Z,76.31
2018-03-06T08:13:20.760Z,76.31
2018-03-06T08:14:09.790Z,76.50
2018-03-06T08:14:58.838Z,76.23
2018-03-06T08:15:47.866Z,76.95
2018-03-06T08:16:36.926Z,76.75
2018-03-06T08:17:25.950Z,76.34
2018-03-06T08:18:14.982Z,77.06
2018-03-06T08:19:04.011Z,76.24
2018-03-06T08:19:53.040Z,76.67
2018-03-06T08:20:42.266Z,77.60
2018-03-06T08:21:31.300Z,77.95
2018-03-06T08:22:21.064Z,77.12
2018-03-06T08:23:10.094Z,76.09
2018-03-06T08:23:59.199Z,75.74
2018-03-06T08:24:48.247Z,75.47
2018-03-06T08:25:37.271Z,75.73
2018-03-06T08:26:26.411Z,75.00
2018-03-06T08:27:15.443Z,74.86
2018-03-06T08:28:04.463Z,74.16
2018-03-06T08:28:53.493Z,73.18
2018-03-06T08:29:42.529Z,73.72
2018-03-06T08:30:31.558Z,73.23
2018-03-06T08:31:20.595Z,72.82
2018-03-06T08:32:09.672Z,72.29
2018-03-06T08:32:58.866Z,72.44
2018-03-06T08:33:47.903Z,73.02
2018-03-06T08:34:36.950Z,75.10
2018-03-06T08:35:25.979Z,75.65
2018-03-06T08:36:15.031Z,76.39
2018-03-06T08:37:04.061Z,77.49
2018-03-06T08:37:53.141Z,78.64
2018-03-06T08:38:42.166Z,78.16
2018-03-06T08:39:31.202Z,78.31
2018-03-06T08:40:20.235Z,78.73
2018-03-06T08:41:09.262Z,78.73
2018-03-06T08:41:58.293Z,79.05
2018-03-06T08:42:47.327Z,78.83
2018-03-06T08:43:36.504Z,78.91
2018-03-06T08:44:25.558Z,79.40
2018-03-06T08:45:14.593Z,79.11
2018-03-06T08:46:03.625Z,78.74
2018-03-06T08:46:52.657Z,79.00
2018-03-06T08:47:41.701Z,79.62
2018-03-06T08:48:30.838Z,79.49
2018-03-06T08:49:19.871Z,79.57
2018-03-06T08:50:08.901Z,80.05
2018-03-06T08:50:57.930Z,79.81
2018-03-06T08:51:46.969Z,79.14
2018-03-06T08:52:35.993Z,79.14
2018-03-06T08:53:25.016Z,79.10
2018-03-06T08:54:14.107Z,78.85
2018-03-06T08:55:03.139Z,78.99
2018-03-06T08:55:52.168Z,78.82
2018-03-06T08:56:41.199Z,78.43
2018-03-06T08:57:30.279Z,78.06
2018-03-06T08:58:19.356Z,78.44
2018-03-06T08:59:08.394Z,78.37
2018-03-06T08:59:57.419Z,78.07
2018-03-06T09:00:46.454Z,77.80
2018-03-06T09:01:35.515Z,78.06
2018-03-06T09:02:24.593Z,78.58
2018-03-06T09:03:13.656Z,78.41
2018-03-06T09:04:02.702Z,78.46
2018-03-06T09:04:51.745Z,78.02
2018-03-06T09:05:40.788Z,77.74
2018-03-06T09:06:29.815Z,76.23
2018-03-06T09:07:18.843Z,75.17
2018-03-06T09:08:07.962Z,74.94
2018-03-06T09:08:57.001Z,73.96
2018-03-06T09:09:46.034Z,74.43
2018-03-06T09:10:35.060Z,74.23
2018-03-06T09:11:24.086Z,74.54
2018-03-06T09:12:13.178Z,74.38
2018-03-06T09:13:02.208Z,73.80
2018-03-06T09:13:51.275Z,73.13
2018-03-06T09:14:40.301Z,73.42
2018-03-06T09:15:29.340Z,72.13
2018-03-06T09:16:18.360Z,71.83
2018-03-06T09:17:07.399Z,70.62
2018-03-06T09:17:56.443Z,70.42
2018-03-06T09:18:45.471Z,69.92
2018-03-06T09:19:35.630Z,70.59
2018-03-06T09:20:24.661Z,70.32
2018-03-06T09:21:13.704Z,70.27
2018-03-06T09:22:02.729Z,70.46
2018-03-06T09:22:51.760Z,71.38
2018-03-06T09:23:40.786Z,71.63
2018-03-06T09:24:30.110Z,70.97
2018-03-06T09:25:19.137Z,70.56
2018-03-06T09:26:08.174Z,71.37
2018-03-06T09:26:57.204Z,70.53
2018-03-06T09:27:46.233Z,70.07
2018-03-06T09:28:35.263Z,70.25
2018-03-06T09:29:24.300Z,69.75
2018-03-06T09:30:13.396Z,69.49
2018-03-06T09:31:02.434Z,69.09
2018-03-06T09:31:51.463Z,68.26
2018-03-06T09:32:40.518Z,67.02
2018-03-06T09:33:29.549Z,66.65
2018-03-06T09:34:18.631Z,68.04
2018-03-06T09:35:07.664Z,68.24
2018-03-06T09:35:56.707Z,67.79
2018-03-06T09:36:45.775Z,67.22
2018-03-06T09:37:34.807Z,67.79
2018-03-06T09:38:24.083Z,66.59
2018-03-06T09:39:13.114Z,65.01
2018-03-06T09:40:02.279Z,65.93
2018-03-06T09:40:51.335Z,66.19
2018-03-06T09:41:40.406Z,65.87
2018-03-06T09:42:29.456Z,66.48
2018-03-06T09:43:18.491Z,66.64
2018-03-06T09:44:07.523Z,67.14
2018-03-06T09:44:56.561Z,67.24
2018-03-06T09:45:45.882Z,67.03
2018-03-06T09:46:34.932Z,66.21
2018-03-06T09:47:23.970Z,68.27
2018-03-06T09:48:13.032Z,69.28
2018-03-06T09:49:02.113Z,69.15
2018-03-06T09:49:51.200Z,68.58
2018-03-06T09:50:40.262Z,67.60
2018-03-06T09:51:30.021Z,66.67
2018-03-06T09:52:19.080Z,67.31
2018-03-06T09:53:08.168Z,66.05
2018-03-06T09:53:57.244Z,65.79
2018-03-06T09:54:46.274Z,65.56
2018-03-06T09:55:35.504Z,67.34
2018-03-06T09:56:24.536Z,67.65
2018-03-06T09:57:13.576Z,68.70
2018-03-06T09:58:02.609Z,69.36
2018-03-06T09:58:51.647Z,68.97
2018-03-06T09:59:40.775Z,69.46
2018-03-06T10:00:29.814Z,68.94
2018-03-06T10:01:18.857Z,70.77
2018-03-06T10:02:07.883Z,70.47
2018-03-06T10:02:56.916Z,70.71
2018-03-06T10:03:45.954Z,70.71
2018-03-06T10:04:34.992Z,69.74
2018-03-06T10:05:24.066Z,70.44
2018-03-06T10:06:13.115Z,70.65
2018-03-06T10:07:02.168Z,69.71
2018-03-06T10:07:51.225Z,69.15
2018-03-06T10:08:40.260Z,69.30
2018-03-06T10:09:29.304Z,70.26
2018-03-06T10:10:18.341Z,70.21
2018-03-06T10:11:07.467Z,70.52
2018-03-06T10:11:56.513Z,69.85
2018-03-06T10:12:45.555Z,70.20
2018-03-06T10:13:34.592Z,69.68
2018-03-06T10:14:23.639Z,69.43
2018-03-06T10:15:12.675Z,69.20
2018-03-06T10:16:01.713Z,69.37
2018-03-06T10:16:50.844Z,69.79
2018-03-06T10:17:39.906Z,70.39
2018-03-06T10:18:28.929Z,70.05
2018-03-06T10:19:17.976Z,70.13
2018-03-06T10:20:07.005Z,69.68
2018-03-06T10:20:56.047Z,68.18
2018-03-06T10:21:45.081Z,66.35
2018-03-06T10:22:34.171Z,66.84
2018-03-06T10:23:23.227Z,66.88
2018-03-06T10:24:12.282Z,67.30
2018-03-06T10:25:01.316Z,65.92
2018-03-06T10:25:50.358Z,66.20
2018-03-06T10:26:39.393Z,66.21
2018-03-06T10:27:28.426Z,65.93
2018-03-06T10:28:17.502Z,65.97
2018-03-06T10:29:06.530Z,65.86
2018-03-06T10:29:55.571Z,65.83
2018-03-06T10:30:44.602Z,65.11
2018-03-06T10:31:33.647Z,64.98
2018-03-06T10:32:22.678Z,64.43